Terminal Aerodrome Forecast
Issued by NWS Lake Charles, LA

Home | Current Version | Previous Version | Text Only | Print | Product List | Glossary On
Versions: 1 2 3 4 5 6 7 8 9 10 11 12 13 14 15 16 17 18 19 20 21 22 23 24 25 26 27
830
FTUS44 KLCH 061723
TAFBPT
TAF
KBPT 061723Z 0618/0718 27006KT P6SM SCT012
     FM070100 VRB03KT P6SM BKN012
     FM070300 VRB03KT 3SM BR OVC007
     FM071600 08006KT P6SM BKN007=

USA.gov is the U.S. government's official web portal to all federal, state and local government web resources and services.